EST,Max TemperatureF,Mean TemperatureF,Min TemperatureF,Max Dew PointF,MeanDew PointF,Min DewpointF,Max Humidity, Mean Humidity, Min Humidity, Max Sea Level PressureIn, Mean Sea Level PressureIn, Min Sea Level PressureIn, Max VisibilityMiles, Mean VisibilityMiles, Min VisibilityMiles, Max Wind SpeedMPH, Mean Wind SpeedMPH, Max Gust SpeedMPH,PrecipitationIn, CloudCover, Events, WindDirDegrees
2011-12-1,51,37,23,30,22,12,100,69,22,30.31,30.25,30.16,10,10,9,5,1,,0.00,0,,3
2011-12-2,51,40,30,27,23,19,75,52,30,30.46,30.38,30.30,10,10,10,7,2,,0.00,0,,249
2011-12-3,53,46,39,28,24,19,53,42,35,30.48,30.44,30.41,10,10,10,10,3,,0.00,0,,119
2011-12-4,59,49,39,43,26,16,71,42,22,30.38,30.33,30.27,10,10,10,10,4,,0.00,0,,156
2011-12-5,60,54,48,48,45,41,82,69,55,30.26,30.17,30.07,10,10,10,14,6,23,0.00,1,,160
2011-12-6,57,55,53,57,55,54,100,96,88,30.09,30.02,29.96,10,9,2,12,4,20,0.00,6,,203
2011-12-7,46,36,26,46,38,27,100,100,93,30.06,29.85,29.69,8,2,0,15,5,23,0.00,6,,320
2011-12-8,35,28,21,27,24,21,100,86,60,30.26,30.20,30.07,10,10,10,12,4,,0.00,0,,285
2011-12-9,44,35,26,30,26,19,93,70,48,30.25,30.20,30.14,10,10,10,8,3,,0.00,0,,249
2011-12-10,33,28,24,30,25,16,100,84,64,30.42,30.34,30.24,10,9,2,8,4,,0.00,0,,305
2011-12-11,44,30,17,19,14,9,93,55,23,30.48,30.42,30.39,10,10,10,6,2,,0.00,0,,80
2011-12-12,51,40,28,36,25,12,71,55,44,30.45,30.40,30.37,10,10,10,6,2,,0.00,5,,308
2011-12-13,55,47,39,45,41,36,100,83,63,30.46,30.41,30.37,10,10,6,8,2,,0.00,6,,265
2011-12-14,62,52,42,45,40,30,100,71,30,30.37,30.30,30.21,10,10,10,7,2,,0.00,6,,204
2011-12-15,60,54,48,54,46,39,100,77,55,30.17,30.12,30.05,10,9,3,17,6,39,0.00,2,,238
2011-12-16,51,42,33,52,41,32,100,97,61,30.24,30.17,30.10,10,6,0,15,5,,0.00,3,,299
2011-12-17,35,30,26,32,26,21,100,85,56,30.23,30.18,30.15,10,9,0,9,6,,0.00,,,294
2011-12-18,42,35,28,25,24,19,86,71,39,30.29,30.23,30.16,10,10,10,13,7,,0.00,,,259
2011-12-19,50,39,28,25,20,14,86,48,25,30.23,30.19,30.14,10,10,10,14,4,,0.00,6,,243
2011-12-20,55,48,42,48,38,21,100,69,39,30.16,30.11,30.03,10,10,5,10,5,,0.00,6,,237
2011-12-21,59,55,50,55,51,46,100,88,72,30.03,29.94,29.85,10,10,3,14,7,26,0.00,,,217
2011-12-22,59,50,42,55,48,43,100,93,72,30.09,29.98,29.84,10,7,0,18,1,32,0.00,2,,244
2011-12-23,42,38,35,43,38,36,100,99,93,30.24,30.16,29.98,10,8,0,10,6,,0.00,3,,295
2011-12-24,42,37,32,37,30,27,100,81,57,30.39,30.33,30.25,10,10,10,15,5,,0.00,,,277
2011-12-25,46,37,28,32,24,10,100,66,25,30.33,30.24,30.13,10,10,10,13,5,25,0.00,0,,241
2011-12-26,44,36,28,27,23,14,93,60,29,30.35,30.23,30.08,10,10,1,12,5,,0.00,0,,313
2011-12-27,48,40,33,46,34,14,100,80,33,29.99,29.68,29.49,10,9,2,18,10,41,0.00,,,194
2011-12-28,39,34,30,30,27,21,100,83,49,30.01,29.91,29.73,10,8,1,16,9,,0.00,,,274
2011-12-29,41,34,28,28,25,18,86,65,39,30.01,29.93,29.88,10,10,10,9,5,,0.00,,,231
2011-12-30,53,45,37,43,34,27,87,62,41,29.99,29.90,29.80,10,10,8,18,6,30,0.00,,,220
2011-12-31,51,46,41,43,37,34,100,76,54,30.10,29.99,29.83,10,10,5,14,7,,0.00,4,,257